sensor_id;sensor_type;location;lat;lon;timestamp;P1;durP1;ratioP1;P2;durP2;ratioP2
3875;SDS011;1953;51.222;6.624;2023-11-21T00:00:28;26.13;;;14.20;;
3875;SDS011;1953;51.222;6.624;2023-11-21T00:05:11;22.37;;;13.90;;
3875;SDS011;1953;51.222;6.624;2023-11-21T00:09:55;25.93;;;15.40;;
3875;SDS011;1953;51.222;6.624;2023-11-21T00:14:38;33.07;;;15.07;;
3875;SDS011;1953;51.222;6.624;2023-11-21T00:20:00;31.40;;;14.97;;
3875;SDS011;1953;51.222;6.624;2023-11-21T00:24:47;30.80;;;16.40;;
3875;SDS011;1953;51.222;6.624;2023-11-21T00:29:29;36.10;;;17.93;;
3875;SDS011;1953;51.222;6.624;2023-11-21T00:34:12;35.67;;;19.00;;
3875;SDS011;1953;51.222;6.624;2023-11-21T00:38:56;37.70;;;19.10;;
3875;SDS011;1953;51.222;6.624;2023-11-21T00:43:38;40.53;;;19.13;;
3875;SDS011;1953;51.222;6.624;2023-11-21T00:48:21;36.30;;;19.00;;
3875;SDS011;1953;51.222;6.624;2023-11-21T00:53:03;41.30;;;19.83;;
3875;SDS011;1953;51.222;6.624;2023-11-21T00:57:49;47.50;;;20.70;;
3875;SDS011;1953;51.222;6.624;2023-11-21T01:02:32;39.13;;;20.20;;
3875;SDS011;1953;51.222;6.624;2023-11-21T01:07:16;41.30;;;20.33;;
3875;SDS011;1953;51.222;6.624;2023-11-21T01:12:01;40.77;;;19.87;;
3875;SDS011;1953;51.222;6.624;2023-11-21T01:16:45;45.17;;;19.97;;
3875;SDS011;1953;51.222;6.624;2023-11-21T01:21:27;41.37;;;20.00;;
3875;SDS011;1953;51.222;6.624;2023-11-21T01:26:11;41.80;;;20.17;;
3875;SDS011;1953;51.222;6.624;2023-11-21T01:30:53;45.90;;;21.13;;
3875;SDS011;1953;51.222;6.624;2023-11-21T01:35:38;41.83;;;19.40;;
3875;SDS011;1953;51.222;6.624;2023-11-21T01:40:21;43.13;;;19.90;;
3875;SDS011;1953;51.222;6.624;2023-11-21T01:45:05;41.20;;;20.73;;
3875;SDS011;1953;51.222;6.624;2023-11-21T01:49:50;49.70;;;21.13;;
3875;SDS011;1953;51.222;6.624;2023-11-21T01:54:35;45.93;;;20.87;;
3875;SDS011;1953;51.222;6.624;2023-11-21T01:59:18;45.40;;;21.20;;
3875;SDS011;1953;51.222;6.624;2023-11-21T02:04:02;48.73;;;21.50;;
3875;SDS011;1953;51.222;6.624;2023-11-21T02:08:45;50.90;;;23.17;;
3875;SDS011;1953;51.222;6.624;2023-11-21T02:13:29;41.93;;;20.90;;
3875;SDS011;1953;51.222;6.624;2023-11-21T02:18:12;47.23;;;21.80;;
3875;SDS011;1953;51.222;6.624;2023-11-21T02:22:57;46.27;;;21.73;;
3875;SDS011;1953;51.222;6.624;2023-11-21T02:27:40;41.83;;;20.90;;
3875;SDS011;1953;51.222;6.624;2023-11-21T02:32:23;54.37;;;24.00;;
3875;SDS011;1953;51.222;6.624;2023-11-21T02:37:06;48.60;;;23.03;;
3875;SDS011;1953;51.222;6.624;2023-11-21T02:41:50;45.97;;;21.63;;
3875;SDS011;1953;51.222;6.624;2023-11-21T02:46:33;49.93;;;23.20;;
3875;SDS011;1953;51.222;6.624;2023-11-21T02:51:15;48.10;;;22.90;;
3875;SDS011;1953;51.222;6.624;2023-11-21T02:55:58;56.00;;;21.90;;
3875;SDS011;1953;51.222;6.624;2023-11-21T03:00:42;51.93;;;22.83;;
3875;SDS011;1953;51.222;6.624;2023-11-21T03:05:24;45.67;;;22.80;;
3875;SDS011;1953;51.222;6.624;2023-11-21T03:10:07;52.23;;;23.40;;
3875;SDS011;1953;51.222;6.624;2023-11-21T03:14:51;50.37;;;24.20;;
3875;SDS011;1953;51.222;6.624;2023-11-21T03:19:36;48.80;;;23.97;;
3875;SDS011;1953;51.222;6.624;2023-11-21T03:24:19;56.60;;;24.30;;
3875;SDS011;1953;51.222;6.624;2023-11-21T03:29:03;48.57;;;24.67;;
3875;SDS011;1953;51.222;6.624;2023-11-21T03:33:45;52.90;;;23.70;;
3875;SDS011;1953;51.222;6.624;2023-11-21T03:38:30;52.23;;;23.40;;
3875;SDS011;1953;51.222;6.624;2023-11-21T03:43:12;50.17;;;24.67;;
3875;SDS011;1953;51.222;6.624;2023-11-21T03:47:55;58.67;;;25.60;;
3875;SDS011;1953;51.222;6.624;2023-11-21T03:52:38;55.97;;;24.83;;
3875;SDS011;1953;51.222;6.624;2023-11-21T03:57:22;55.90;;;24.10;;
3875;SDS011;1953;51.222;6.624;2023-11-21T04:02:04;60.10;;;24.60;;
3875;SDS011;1953;51.222;6.624;2023-11-21T04:06:47;57.50;;;22.33;;
3875;SDS011;1953;51.222;6.624;2023-11-21T04:11:30;54.47;;;23.07;;
3875;SDS011;1953;51.222;6.624;2023-11-21T04:16:13;51.97;;;23.93;;
3875;SDS011;1953;51.222;6.624;2023-11-21T04:20:56;54.97;;;24.50;;
3875;SDS011;1953;51.222;6.624;2023-11-21T04:25:38;58.17;;;24.60;;
3875;SDS011;1953;51.222;6.624;2023-11-21T04:30:21;59.03;;;24.37;;
3875;SDS011;1953;51.222;6.624;2023-11-21T04:35:05;55.20;;;22.73;;
3875;SDS011;1953;51.222;6.624;2023-11-21T04:39:49;52.50;;;23.80;;
3875;SDS011;1953;51.222;6.624;2023-11-21T04:44:32;61.53;;;24.97;;
3875;SDS011;1953;51.222;6.624;2023-11-21T04:49:15;51.77;;;24.10;;
3875;SDS011;1953;51.222;6.624;2023-11-21T04:53:58;62.10;;;24.80;;
3875;SDS011;1953;51.222;6.624;2023-11-21T04:58:41;57.53;;;23.13;;
3875;SDS011;1953;51.222;6.624;2023-11-21T05:03:24;56.07;;;24.63;;
3875;SDS011;1953;51.222;6.624;2023-11-21T05:08:06;64.13;;;25.83;;
3875;SDS011;1953;51.222;6.624;2023-11-21T05:12:50;58.43;;;23.17;;
3875;SDS011;1953;51.222;6.624;2023-11-21T05:17:33;52.97;;;24.83;;
3875;SDS011;1953;51.222;6.624;2023-11-21T05:22:16;61.20;;;24.00;;
3875;SDS011;1953;51.222;6.624;2023-11-21T05:26:58;64.47;;;24.73;;
3875;SDS011;1953;51.222;6.624;2023-11-21T05:31:42;64.60;;;23.40;;
3875;SDS011;1953;51.222;6.624;2023-11-21T05:36:24;57.97;;;22.87;;
3875;SDS011;1953;51.222;6.624;2023-11-21T05:41:07;53.63;;;23.27;;
3875;SDS011;1953;51.222;6.624;2023-11-21T05:45:51;58.17;;;23.70;;
3875;SDS011;1953;51.222;6.624;2023-11-21T05:50:35;54.30;;;23.57;;
3875;SDS011;1953;51.222;6.624;2023-11-21T05:55:18;65.53;;;23.20;;
3875;SDS011;1953;51.222;6.624;2023-11-21T06:00:03;56.00;;;23.90;;
3875;SDS011;1953;51.222;6.624;2023-11-21T06:04:51;63.63;;;25.30;;
3875;SDS011;1953;51.222;6.624;2023-11-21T06:09:35;66.53;;;25.40;;
3875;SDS011;1953;51.222;6.624;2023-11-21T06:14:18;70.13;;;26.10;;
3875;SDS011;1953;51.222;6.624;2023-11-21T06:19:02;75.67;;;24.70;;
3875;SDS011;1953;51.222;6.624;2023-11-21T06:23:46;69.40;;;27.10;;
3875;SDS011;1953;51.222;6.624;2023-11-21T06:28:30;76.03;;;26.17;;
3875;SDS011;1953;51.222;6.624;2023-11-21T06:33:12;72.97;;;26.43;;
3875;SDS011;1953;51.222;6.624;2023-11-21T06:37:55;76.83;;;26.77;;
3875;SDS011;1953;51.222;6.624;2023-11-21T06:42:38;73.50;;;26.10;;
3875;SDS011;1953;51.222;6.624;2023-11-21T06:47:21;68.63;;;25.30;;
3875;SDS011;1953;51.222;6.624;2023-11-21T06:52:05;69.80;;;26.43;;
3875;SDS011;1953;51.222;6.624;2023-11-21T06:56:49;75.73;;;26.73;;
3875;SDS011;1953;51.222;6.624;2023-11-21T07:01:31;92.53;;;28.83;;
3875;SDS011;1953;51.222;6.624;2023-11-21T07:06:20;98.97;;;30.30;;
3875;SDS011;1953;51.222;6.624;2023-11-21T07:11:03;96.83;;;31.17;;
3875;SDS011;1953;51.222;6.624;2023-11-21T07:15:46;98.70;;;30.10;;
3875;SDS011;1953;51.222;6.624;2023-11-21T07:20:29;96.20;;;32.70;;
3875;SDS011;1953;51.222;6.624;2023-11-21T07:25:13;107.90;;;34.50;;
3875;SDS011;1953;51.222;6.624;2023-11-21T07:29:56;103.20;;;32.43;;
3875;SDS011;1953;51.222;6.624;2023-11-21T07:34:38;111.47;;;32.90;;
3875;SDS011;1953;51.222;6.624;2023-11-21T07:39:21;99.60;;;32.27;;
3875;SDS011;1953;51.222;6.624;2023-11-21T07:44:05;108.30;;;32.33;;
3875;SDS011;1953;51.222;6.624;2023-11-21T07:48:48;96.00;;;29.30;;
3875;SDS011;1953;51.222;6.624;2023-11-21T07:53:30;97.67;;;29.50;;
3875;SDS011;1953;51.222;6.624;2023-11-21T07:58:13;104.50;;;30.07;;
3875;SDS011;1953;51.222;6.624;2023-11-21T08:02:57;109.53;;;31.60;;
3875;SDS011;1953;51.222;6.624;2023-11-21T08:07:39;107.90;;;32.53;;
3875;SDS011;1953;51.222;6.624;2023-11-21T08:12:22;110.20;;;33.17;;
3875;SDS011;1953;51.222;6.624;2023-11-21T08:17:04;128.80;;;34.27;;
3875;SDS011;1953;51.222;6.624;2023-11-21T08:21:49;115.30;;;32.57;;
3875;SDS011;1953;51.222;6.624;2023-11-21T08:26:31;122.47;;;33.43;;
3875;SDS011;1953;51.222;6.624;2023-11-21T08:31:14;121.47;;;34.30;;
3875;SDS011;1953;51.222;6.624;2023-11-21T08:35:57;123.83;;;34.30;;
3875;SDS011;1953;51.222;6.624;2023-11-21T08:40:43;131.27;;;35.47;;
3875;SDS011;1953;51.222;6.624;2023-11-21T08:45:26;117.67;;;33.60;;
3875;SDS011;1953;51.222;6.624;2023-11-21T08:50:09;109.57;;;31.33;;
3875;SDS011;1953;51.222;6.624;2023-11-21T08:54:52;119.97;;;32.43;;
3875;SDS011;1953;51.222;6.624;2023-11-21T08:59:38;110.93;;;33.23;;
3875;SDS011;1953;51.222;6.624;2023-11-21T09:04:20;107.10;;;31.03;;
3875;SDS011;1953;51.222;6.624;2023-11-21T09:09:03;113.87;;;31.90;;
3875;SDS011;1953;51.222;6.624;2023-11-21T09:13:46;109.07;;;31.50;;
3875;SDS011;1953;51.222;6.624;2023-11-21T09:18:30;91.43;;;29.17;;
3875;SDS011;1953;51.222;6.624;2023-11-21T09:23:14;108.47;;;32.03;;
3875;SDS011;1953;51.222;6.624;2023-11-21T09:27:57;101.23;;;32.43;;
3875;SDS011;1953;51.222;6.624;2023-11-21T09:32:40;91.23;;;30.23;;
3875;SDS011;1953;51.222;6.624;2023-11-21T09:37:27;90.10;;;30.10;;
3875;SDS011;1953;51.222;6.624;2023-11-21T09:42:10;77.20;;;27.70;;
3875;SDS011;1953;51.222;6.624;2023-11-21T09:46:57;68.93;;;26.97;;
3875;SDS011;1953;51.222;6.624;2023-11-21T09:51:42;65.90;;;25.23;;
3875;SDS011;1953;51.222;6.624;2023-11-21T09:56:26;81.83;;;28.53;;
3875;SDS011;1953;51.222;6.624;2023-11-21T10:01:10;71.03;;;28.27;;
3875;SDS011;1953;51.222;6.624;2023-11-21T10:05:56;63.73;;;26.63;;
3875;SDS011;1953;51.222;6.624;2023-11-21T10:10:42;73.37;;;27.90;;
3875;SDS011;1953;51.222;6.624;2023-11-21T10:15:27;72.43;;;27.90;;
3875;SDS011;1953;51.222;6.624;2023-11-21T10:20:11;72.63;;;26.37;;
3875;SDS011;1953;51.222;6.624;2023-11-21T10:24:54;57.13;;;24.97;;
3875;SDS011;1953;51.222;6.624;2023-11-21T10:29:36;66.13;;;28.07;;
3875;SDS011;1953;51.222;6.624;2023-11-21T10:34:22;67.33;;;26.67;;
3875;SDS011;1953;51.222;6.624;2023-11-21T10:39:04;65.37;;;26.00;;
3875;SDS011;1953;51.222;6.624;2023-11-21T10:43:47;58.90;;;25.80;;
3875;SDS011;1953;51.222;6.624;2023-11-21T10:48:30;63.70;;;24.93;;
3875;SDS011;1953;51.222;6.624;2023-11-21T10:53:16;55.60;;;26.97;;
3875;SDS011;1953;51.222;6.624;2023-11-21T10:58:00;63.33;;;27.17;;
3875;SDS011;1953;51.222;6.624;2023-11-21T11:02:45;64.93;;;26.23;;
3875;SDS011;1953;51.222;6.624;2023-11-21T11:07:30;54.80;;;22.43;;
3875;SDS011;1953;51.222;6.624;2023-11-21T11:12:16;56.97;;;22.63;;
3875;SDS011;1953;51.222;6.624;2023-11-21T11:17:00;51.87;;;23.37;;
3875;SDS011;1953;51.222;6.624;2023-11-21T11:21:49;50.60;;;24.10;;
3875;SDS011;1953;51.222;6.624;2023-11-21T11:26:40;54.50;;;24.20;;
3875;SDS011;1953;51.222;6.624;2023-11-21T11:31:31;56.93;;;24.57;;
3875;SDS011;1953;51.222;6.624;2023-11-21T11:36:25;64.80;;;25.10;;
3875;SDS011;1953;51.222;6.624;2023-11-21T11:41:13;57.93;;;26.37;;
3875;SDS011;1953;51.222;6.624;2023-11-21T11:46:06;63.87;;;26.47;;
3875;SDS011;1953;51.222;6.624;2023-11-21T11:51:03;64.97;;;26.07;;
3875;SDS011;1953;51.222;6.624;2023-11-21T11:55:53;60.00;;;26.20;;
3875;SDS011;1953;51.222;6.624;2023-11-21T12:01:00;66.57;;;26.67;;
3875;SDS011;1953;51.222;6.624;2023-11-21T12:05:48;66.57;;;27.30;;
3875;SDS011;1953;51.222;6.624;2023-11-21T12:10:35;58.13;;;25.47;;
3875;SDS011;1953;51.222;6.624;2023-11-21T12:15:18;71.23;;;26.50;;
3875;SDS011;1953;51.222;6.624;2023-11-21T12:21:00;60.97;;;26.37;;
3875;SDS011;1953;51.222;6.624;2023-11-21T12:25:44;59.93;;;26.10;;
3875;SDS011;1953;51.222;6.624;2023-11-21T12:30:28;60.37;;;26.73;;
3875;SDS011;1953;51.222;6.624;2023-11-21T12:35:11;63.13;;;26.40;;
3875;SDS011;1953;51.222;6.624;2023-11-21T12:39:56;58.90;;;25.67;;
3875;SDS011;1953;51.222;6.624;2023-11-21T12:44:38;52.07;;;24.90;;
3875;SDS011;1953;51.222;6.624;2023-11-21T12:49:22;61.93;;;27.10;;
3875;SDS011;1953;51.222;6.624;2023-11-21T12:54:05;64.90;;;28.60;;
3875;SDS011;1953;51.222;6.624;2023-11-21T12:58:53;59.90;;;26.63;;
3875;SDS011;1953;51.222;6.624;2023-11-21T13:03:38;56.20;;;27.00;;
3875;SDS011;1953;51.222;6.624;2023-11-21T13:08:21;52.63;;;25.57;;
3875;SDS011;1953;51.222;6.624;2023-11-21T13:13:05;69.60;;;30.70;;
3875;SDS011;1953;51.222;6.624;2023-11-21T13:17:51;58.63;;;26.27;;
3875;SDS011;1953;51.222;6.624;2023-11-21T13:22:34;61.93;;;25.87;;
3875;SDS011;1953;51.222;6.624;2023-11-21T13:27:16;53.83;;;25.10;;
3875;SDS011;1953;51.222;6.624;2023-11-21T13:31:59;55.17;;;24.30;;
3875;SDS011;1953;51.222;6.624;2023-11-21T13:36:45;59.10;;;25.17;;
3875;SDS011;1953;51.222;6.624;2023-11-21T13:41:28;55.93;;;24.00;;
3875;SDS011;1953;51.222;6.624;2023-11-21T13:46:12;50.30;;;22.97;;
3875;SDS011;1953;51.222;6.624;2023-11-21T13:50:57;58.13;;;23.27;;
3875;SDS011;1953;51.222;6.624;2023-11-21T13:55:48;54.07;;;23.00;;
3875;SDS011;1953;51.222;6.624;2023-11-21T14:00:31;49.50;;;22.33;;
3875;SDS011;1953;51.222;6.624;2023-11-21T14:05:22;44.23;;;20.70;;
3875;SDS011;1953;51.222;6.624;2023-11-21T14:10:10;45.37;;;21.90;;
3875;SDS011;1953;51.222;6.624;2023-11-21T14:14:56;43.40;;;21.27;;
3875;SDS011;1953;51.222;6.624;2023-11-21T14:19:38;51.63;;;22.20;;
3875;SDS011;1953;51.222;6.624;2023-11-21T14:24:23;52.17;;;19.87;;
3875;SDS011;1953;51.222;6.624;2023-11-21T14:29:06;41.53;;;18.40;;
3875;SDS011;1953;51.222;6.624;2023-11-21T14:33:50;33.60;;;16.53;;
3875;SDS011;1953;51.222;6.624;2023-11-21T14:38:33;31.37;;;16.70;;
3875;SDS011;1953;51.222;6.624;2023-11-21T14:43:15;32.90;;;16.90;;
3875;SDS011;1953;51.222;6.624;2023-11-21T14:47:59;33.27;;;16.17;;
3875;SDS011;1953;51.222;6.624;2023-11-21T14:52:50;33.27;;;17.33;;
3875;SDS011;1953;51.222;6.624;2023-11-21T14:57:39;35.57;;;17.93;;
3875;SDS011;1953;51.222;6.624;2023-11-21T15:02:22;37.63;;;19.80;;
3875;SDS011;1953;51.222;6.624;2023-11-21T15:07:25;37.00;;;19.27;;
3875;SDS011;1953;51.222;6.624;2023-11-21T15:12:09;35.20;;;17.57;;
3875;SDS011;1953;51.222;6.624;2023-11-21T15:16:55;35.40;;;17.90;;
3875;SDS011;1953;51.222;6.624;2023-11-21T15:21:40;47.17;;;22.30;;
3875;SDS011;1953;51.222;6.624;2023-11-21T15:26:23;53.70;;;25.23;;
3875;SDS011;1953;51.222;6.624;2023-11-21T15:31:07;46.50;;;23.90;;
3875;SDS011;1953;51.222;6.624;2023-11-21T15:35:50;52.80;;;23.80;;
3875;SDS011;1953;51.222;6.624;2023-11-21T15:40:32;52.20;;;24.57;;
3875;SDS011;1953;51.222;6.624;2023-11-21T15:45:15;45.33;;;22.97;;
3875;SDS011;1953;51.222;6.624;2023-11-21T15:50:01;43.63;;;22.17;;
3875;SDS011;1953;51.222;6.624;2023-11-21T15:54:44;36.80;;;19.83;;
3875;SDS011;1953;51.222;6.624;2023-11-21T15:59:27;34.73;;;17.10;;
3875;SDS011;1953;51.222;6.624;2023-11-21T16:04:12;34.90;;;16.80;;
3875;SDS011;1953;51.222;6.624;2023-11-21T16:08:58;33.53;;;16.87;;
3875;SDS011;1953;51.222;6.624;2023-11-21T16:13:42;29.13;;;16.33;;
3875;SDS011;1953;51.222;6.624;2023-11-21T16:18:26;31.67;;;16.13;;
3875;SDS011;1953;51.222;6.624;2023-11-21T16:23:09;31.53;;;16.57;;
3875;SDS011;1953;51.222;6.624;2023-11-21T16:27:53;42.30;;;16.50;;
3875;SDS011;1953;51.222;6.624;2023-11-21T16:32:37;30.57;;;16.23;;
3875;SDS011;1953;51.222;6.624;2023-11-21T16:37:19;31.97;;;16.20;;
3875;SDS011;1953;51.222;6.624;2023-11-21T16:42:02;30.90;;;16.97;;
3875;SDS011;1953;51.222;6.624;2023-11-21T16:46:46;31.03;;;16.20;;
3875;SDS011;1953;51.222;6.624;2023-11-21T16:51:30;30.53;;;16.10;;
3875;SDS011;1953;51.222;6.624;2023-11-21T16:56:13;31.43;;;17.57;;
3875;SDS011;1953;51.222;6.624;2023-11-21T17:00:55;31.27;;;17.00;;
3875;SDS011;1953;51.222;6.624;2023-11-21T17:05:40;36.13;;;20.63;;
3875;SDS011;1953;51.222;6.624;2023-11-21T17:10:24;43.30;;;23.23;;
3875;SDS011;1953;51.222;6.624;2023-11-21T17:15:07;37.90;;;21.33;;
3875;SDS011;1953;51.222;6.624;2023-11-21T17:19:50;37.87;;;21.50;;
3875;SDS011;1953;51.222;6.624;2023-11-21T17:24:34;38.20;;;20.80;;
3875;SDS011;1953;51.222;6.624;2023-11-21T17:29:17;36.27;;;20.77;;
3875;SDS011;1953;51.222;6.624;2023-11-21T17:34:00;32.90;;;17.57;;
3875;SDS011;1953;51.222;6.624;2023-11-21T17:38:42;25.10;;;16.20;;
3875;SDS011;1953;51.222;6.624;2023-11-21T17:43:26;34.40;;;15.27;;
3875;SDS011;1953;51.222;6.624;2023-11-21T17:48:09;26.03;;;16.10;;
3875;SDS011;1953;51.222;6.624;2023-11-21T17:52:52;28.70;;;13.60;;
3875;SDS011;1953;51.222;6.624;2023-11-21T17:57:34;24.50;;;15.13;;
3875;SDS011;1953;51.222;6.624;2023-11-21T18:02:18;27.40;;;15.80;;
3875;SDS011;1953;51.222;6.624;2023-11-21T18:07:01;28.80;;;16.70;;
3875;SDS011;1953;51.222;6.624;2023-11-21T18:11:44;23.80;;;14.63;;
3875;SDS011;1953;51.222;6.624;2023-11-21T18:16:27;25.17;;;15.30;;
3875;SDS011;1953;51.222;6.624;2023-11-21T18:21:11;24.97;;;13.83;;
3875;SDS011;1953;51.222;6.624;2023-11-21T18:25:54;23.27;;;15.57;;
3875;SDS011;1953;51.222;6.624;2023-11-21T18:30:36;27.83;;;15.63;;
3875;SDS011;1953;51.222;6.624;2023-11-21T18:35:19;26.67;;;15.73;;
3875;SDS011;1953;51.222;6.624;2023-11-21T18:40:03;25.80;;;15.53;;
3875;SDS011;1953;51.222;6.624;2023-11-21T18:44:47;24.37;;;15.40;;
3875;SDS011;1953;51.222;6.624;2023-11-21T18:49:30;24.20;;;14.20;;
3875;SDS011;1953;51.222;6.624;2023-11-21T18:54:12;25.00;;;14.63;;
3875;SDS011;1953;51.222;6.624;2023-11-21T18:58:56;22.80;;;12.83;;
3875;SDS011;1953;51.222;6.624;2023-11-21T19:03:41;21.53;;;14.20;;
3875;SDS011;1953;51.222;6.624;2023-11-21T19:08:23;20.53;;;12.97;;
3875;SDS011;1953;51.222;6.624;2023-11-21T19:13:06;20.87;;;12.50;;
3875;SDS011;1953;51.222;6.624;2023-11-21T19:17:50;19.90;;;11.77;;
3875;SDS011;1953;51.222;6.624;2023-11-21T19:22:34;18.23;;;11.30;;
3875;SDS011;1953;51.222;6.624;2023-11-21T19:27:17;18.40;;;11.70;;
3875;SDS011;1953;51.222;6.624;2023-11-21T19:32:00;16.53;;;11.03;;
3875;SDS011;1953;51.222;6.624;2023-11-21T19:36:45;18.30;;;10.70;;
3875;SDS011;1953;51.222;6.624;2023-11-21T19:41:27;18.37;;;11.20;;
3875;SDS011;1953;51.222;6.624;2023-11-21T19:46:10;17.53;;;10.57;;
3875;SDS011;1953;51.222;6.624;2023-11-21T19:50:53;18.10;;;11.57;;
3875;SDS011;1953;51.222;6.624;2023-11-21T19:55:37;17.77;;;11.03;;
3875;SDS011;1953;51.222;6.624;2023-11-21T20:00:19;17.37;;;10.50;;
3875;SDS011;1953;51.222;6.624;2023-11-21T20:05:02;18.57;;;11.43;;
3875;SDS011;1953;51.222;6.624;2023-11-21T20:09:45;17.60;;;11.10;;
3875;SDS011;1953;51.222;6.624;2023-11-21T20:14:31;17.57;;;11.50;;
3875;SDS011;1953;51.222;6.624;2023-11-21T20:19:13;21.03;;;12.20;;
3875;SDS011;1953;51.222;6.624;2023-11-21T20:23:56;19.80;;;12.13;;
3875;SDS011;1953;51.222;6.624;2023-11-21T20:28:38;20.27;;;12.07;;
3875;SDS011;1953;51.222;6.624;2023-11-21T20:33:25;20.87;;;12.80;;
3875;SDS011;1953;51.222;6.624;2023-11-21T20:38:07;19.77;;;12.50;;
3875;SDS011;1953;51.222;6.624;2023-11-21T20:42:52;21.10;;;13.13;;
3875;SDS011;1953;51.222;6.624;2023-11-21T20:47:42;23.00;;;12.90;;
3875;SDS011;1953;51.222;6.624;2023-11-21T20:52:26;20.43;;;13.03;;
3875;SDS011;1953;51.222;6.624;2023-11-21T20:57:09;24.53;;;13.80;;
3875;SDS011;1953;51.222;6.624;2023-11-21T21:01:52;22.67;;;13.37;;
3875;SDS011;1953;51.222;6.624;2023-11-21T21:06:36;22.37;;;13.60;;
3875;SDS011;1953;51.222;6.624;2023-11-21T21:11:21;22.40;;;13.53;;
3875;SDS011;1953;51.222;6.624;2023-11-21T21:16:05;28.23;;;13.37;;
3875;SDS011;1953;51.222;6.624;2023-11-21T21:20:48;28.50;;;14.10;;
3875;SDS011;1953;51.222;6.624;2023-11-21T21:25:31;26.90;;;14.50;;
3875;SDS011;1953;51.222;6.624;2023-11-21T21:30:15;26.80;;;14.03;;
3875;SDS011;1953;51.222;6.624;2023-11-21T21:34:57;25.90;;;13.90;;
3875;SDS011;1953;51.222;6.624;2023-11-21T21:39:40;24.43;;;14.60;;
3875;SDS011;1953;51.222;6.624;2023-11-21T21:44:22;29.77;;;15.30;;
3875;SDS011;1953;51.222;6.624;2023-11-21T21:49:06;24.73;;;14.87;;
3875;SDS011;1953;51.222;6.624;2023-11-21T21:53:49;27.83;;;15.70;;
3875;SDS011;1953;51.222;6.624;2023-11-21T21:58:32;30.00;;;16.73;;
3875;SDS011;1953;51.222;6.624;2023-11-21T22:03:15;27.00;;;15.97;;
3875;SDS011;1953;51.222;6.624;2023-11-21T22:07:59;26.40;;;15.20;;
3875;SDS011;1953;51.222;6.624;2023-11-21T22:12:41;29.10;;;16.33;;
3875;SDS011;1953;51.222;6.624;2023-11-21T22:17:24;29.83;;;17.07;;
3875;SDS011;1953;51.222;6.624;2023-11-21T22:22:08;26.30;;;15.87;;
3875;SDS011;1953;51.222;6.624;2023-11-21T22:26:52;25.40;;;15.70;;
3875;SDS011;1953;51.222;6.624;2023-11-21T22:31:39;29.50;;;16.57;;
3875;SDS011;1953;51.222;6.624;2023-11-21T22:36:22;29.40;;;16.50;;
3875;SDS011;1953;51.222;6.624;2023-11-21T22:41:05;29.93;;;17.50;;
3875;SDS011;1953;51.222;6.624;2023-11-21T22:45:49;25.60;;;14.90;;
3875;SDS011;1953;51.222;6.624;2023-11-21T22:50:32;30.73;;;16.10;;
3875;SDS011;1953;51.222;6.624;2023-11-21T22:55:14;30.83;;;16.47;;
3875;SDS011;1953;51.222;6.624;2023-11-21T22:59:57;27.90;;;15.50;;
3875;SDS011;1953;51.222;6.624;2023-11-21T23:04:41;25.23;;;16.33;;
3875;SDS011;1953;51.222;6.624;2023-11-21T23:09:23;28.10;;;16.10;;
3875;SDS011;1953;51.222;6.624;2023-11-21T23:14:06;26.90;;;15.10;;
3875;SDS011;1953;51.222;6.624;2023-11-21T23:18:48;29.13;;;15.77;;
3875;SDS011;1953;51.222;6.624;2023-11-21T23:23:34;27.80;;;16.40;;
3875;SDS011;1953;51.222;6.624;2023-11-21T23:28:17;28.53;;;15.70;;
3875;SDS011;1953;51.222;6.624;2023-11-21T23:33:00;28.10;;;16.00;;
3875;SDS011;1953;51.222;6.624;2023-11-21T23:37:43;33.33;;;17.43;;
3875;SDS011;1953;51.222;6.624;2023-11-21T23:42:27;35.53;;;18.90;;
3875;SDS011;1953;51.222;6.624;2023-11-21T23:47:09;32.57;;;17.03;;
3875;SDS011;1953;51.222;6.624;2023-11-21T23:51:52;33.33;;;19.40;;
3875;SDS011;1953;51.222;6.624;2023-11-21T23:56:34;32.43;;;17.83;;
